Time;durP1;ratioP1;P1;durP2;ratioP2;P2;SDS_P1;SDS_P2;PMS_P1;PMS_P2;Temp;Humidity;BMP_temperature;BMP_pressure;BME280_temperature;BME280_humidity;BME280_pressure;Samples;Min_cycle;Max_cycle;Signal;HPM_P1;HPM_P2
2022/04/03 00:01:42;;;;;;;3.07;1.50;;;;;;;8.36;55.00;93814.03;4959886;28;20553;-66
2022/04/03 00:04:08;;;;;;;2.50;1.67;;;;;;;8.31;54.24;93813.75;4956996;28;20274;-66
2022/04/03 00:06:33;;;;;;;2.13;1.40;;;;;;;8.48;53.41;93811.13;4965936;28;20282;-66
2022/04/03 00:08:59;;;;;;;2.30;1.57;;;;;;;8.34;54.33;93813.41;4967281;28;20236;-66
2022/04/03 00:11:26;;;;;;;2.13;1.83;;;;;;;8.43;53.69;93821.28;4964771;28;20224;-66
2022/04/03 00:13:52;;;;;;;2.00;1.30;;;;;;;8.51;53.64;93808.16;4964022;28;20215;-66
2022/04/03 00:16:18;;;;;;;1.33;0.93;;;;;;;8.40;53.62;93796.25;4959264;28;20228;-65
2022/04/03 00:18:45;;;;;;;1.20;0.87;;;;;;;8.43;54.47;93790.66;4959131;28;20224;-66
2022/04/03 00:21:13;;;;;;;2.03;1.00;;;;;;;8.51;54.04;93795.88;4967680;28;20228;-66
2022/04/03 00:23:38;;;;;;;2.17;1.47;;;;;;;8.52;54.06;93794.06;4953364;28;20269;-66
2022/04/03 00:26:04;;;;;;;1.90;1.30;;;;;;;8.44;55.51;93804.56;4970778;28;20213;-66
2022/04/03 00:28:30;;;;;;;1.30;1.20;;;;;;;8.48;55.95;93798.84;4972072;28;20208;-66
2022/04/03 00:30:56;;;;;;;2.40;1.50;;;;;;;8.54;56.51;93792.09;4968513;28;20239;-66
2022/04/03 00:33:22;;;;;;;2.20;1.30;;;;;;;8.42;54.83;93796.91;4960515;28;20229;-66
2022/04/03 00:35:47;;;;;;;1.93;1.37;;;;;;;8.44;56.66;93781.00;4958418;28;20257;-66
2022/04/03 00:38:13;;;;;;;1.30;1.20;;;;;;;8.50;56.30;93770.69;4966289;28;20212;-66
2022/04/03 00:40:38;;;;;;;1.13;1.03;;;;;;;8.52;56.70;93775.72;4961573;28;20302;-66
2022/04/03 00:43:04;;;;;;;2.27;1.50;;;;;;;8.60;55.37;93781.75;4959619;28;20550;-66
2022/04/03 00:45:29;;;;;;;2.67;1.40;;;;;;;8.51;55.84;93780.16;4965059;28;20229;-67
2022/04/03 00:47:58;;;;;;;1.67;1.53;;;;;;;8.51;56.54;93787.22;4963135;28;20235;-66
2022/04/03 00:50:24;;;;;;;2.20;1.63;;;;;;;8.54;55.86;93784.25;4960391;28;20259;-66
2022/04/03 00:52:50;;;;;;;2.17;1.70;;;;;;;8.51;56.18;93787.22;4957782;28;20213;-66
2022/04/03 00:55:15;;;;;;;2.57;1.63;;;;;;;8.43;55.25;93785.44;4954448;28;20224;-66
2022/04/03 00:57:42;;;;;;;1.87;1.77;;;;;;;8.53;54.97;93787.84;4958889;28;20593;-66
2022/04/03 01:00:09;;;;;;;2.63;2.00;;;;;;;8.45;55.33;93782.66;4957098;28;20229;-66
2022/04/03 01:02:34;;;;;;;1.87;1.67;;;;;;;8.49;54.16;93783.94;4967149;28;20228;-66
2022/04/03 01:05:01;;;;;;;3.27;1.90;;;;;;;8.51;55.53;93784.59;4969686;28;20509;-67
2022/04/03 01:07:27;;;;;;;4.63;1.97;;;;;;;8.41;56.38;93783.97;4980157;28;20252;-66
2022/04/03 01:09:52;;;;;;;3.60;2.37;;;;;;;8.42;56.55;93782.97;4967284;28;20256;-65
2022/04/03 01:12:18;;;;;;;2.73;2.20;;;;;;;8.42;56.60;93781.19;4961580;28;20290;-64
2022/04/03 01:14:43;;;;;;;3.47;2.60;;;;;;;8.29;57.36;93783.47;4963588;28;20446;-63
2022/04/03 01:17:12;;;;;;;2.83;2.23;;;;;;;8.53;56.85;93790.47;4956329;28;20314;-64
2022/04/03 01:19:38;;;;;;;3.33;2.00;;;;;;;8.35;56.79;93794.09;4962347;28;20232;-64
2022/04/03 01:22:04;;;;;;;2.80;1.70;;;;;;;8.30;55.16;93791.16;4960138;28;20228;-63
2022/04/03 01:24:30;;;;;;;5.33;2.17;;;;;;;8.13;54.98;93795.63;4948815;28;20332;-63
2022/04/03 01:26:56;;;;;;;2.83;1.43;;;;;;;8.21;52.33;93797.41;4959193;28;20407;-64
2022/04/03 01:29:23;;;;;;;4.00;1.63;;;;;;;8.14;52.61;93792.00;4965424;28;20220;-64
2022/04/03 01:31:50;;;;;;;3.07;1.73;;;;;;;8.13;51.70;93794.81;4967511;28;20220;-64
2022/04/03 01:34:17;;;;;;;2.17;1.37;;;;;;;8.09;51.69;93798.72;4982438;28;20242;-64
2022/04/03 01:36:43;;;;;;;3.30;1.40;;;;;;;8.05;52.16;93802.69;4961313;28;20236;-64
2022/04/03 01:39:12;;;;;;;3.23;1.83;;;;;;;7.85;51.96;93812.66;4964781;28;20362;-64
2022/04/03 01:41:38;;;;;;;3.40;1.43;;;;;;;7.98;52.24;93807.75;4965923;28;20335;-64
2022/04/03 01:44:06;;;;;;;2.87;1.50;;;;;;;7.91;51.73;93812.84;4957333;28;20216;-64
2022/04/03 01:46:32;;;;;;;2.43;1.47;;;;;;;7.97;52.58;93826.25;4965845;28;20271;-63
2022/04/03 01:48:57;;;;;;;3.20;1.87;;;;;;;7.89;52.84;93825.25;4959135;28;20247;-63
2022/04/03 01:51:22;;;;;;;3.43;1.40;;;;;;;7.89;52.29;93819.22;4956954;28;20229;-64
2022/04/03 01:53:48;;;;;;;3.93;1.30;;;;;;;7.95;51.72;93808.09;4960751;28;20356;-63
2022/04/03 01:56:18;;;;;;;2.03;1.10;;;;;;;7.80;52.70;93809.72;4970300;28;20216;-63
2022/04/03 01:58:43;;;;;;;2.87;1.50;;;;;;;7.74;53.22;93801.53;4974495;28;20239;-63
2022/04/03 02:01:09;;;;;;;4.10;1.70;;;;;;;7.79;52.21;93802.88;4964117;28;20233;-63
2022/04/03 02:03:34;;;;;;;2.43;1.40;;;;;;;7.73;52.22;93797.31;4963913;28;20218;-63
2022/04/03 02:06:00;;;;;;;2.33;1.33;;;;;;;7.68;52.18;93791.75;4954706;28;20231;-63
2022/04/03 02:08:25;;;;;;;1.90;1.43;;;;;;;7.68;52.20;93785.69;4957342;28;20311;-64
2022/04/03 02:10:52;;;;;;;4.63;1.40;;;;;;;7.60;51.95;93789.13;4957727;28;20207;-64
2022/04/03 02:13:17;;;;;;;1.50;1.17;;;;;;;7.60;52.26;93794.38;4963234;28;20209;-64
2022/04/03 02:15:43;;;;;;;2.40;1.30;;;;;;;7.58;53.28;93790.28;4994894;28;20222;-64
2022/04/03 02:18:09;;;;;;;1.47;1.37;;;;;;;7.45;54.15;93782.91;4956727;28;20220;-64
2022/04/03 02:20:35;;;;;;;2.43;1.43;;;;;;;7.38;54.58;93787.97;4962820;28;20227;-64
2022/04/03 02:23:03;;;;;;;3.50;1.53;;;;;;;7.41;54.75;93786.84;4955700;28;20548;-64
2022/04/03 02:25:29;;;;;;;2.80;1.30;;;;;;;7.37;54.45;93783.72;4962657;28;20248;-64
2022/04/03 02:27:55;;;;;;;1.50;1.20;;;;;;;7.41;54.09;93779.81;4955842;28;20239;-64
2022/04/03 02:30:20;;;;;;;2.70;1.60;;;;;;;7.31;54.54;93781.75;4965535;28;20224;-64
2022/04/03 02:32:46;;;;;;;2.97;1.57;;;;;;;7.31;55.01;93779.16;4957293;28;20229;-64
2022/04/03 02:35:13;;;;;;;2.30;1.50;;;;;;;7.47;54.24;93789.59;4937163;28;20210;-64
2022/04/03 02:37:40;;;;;;;3.90;1.23;;;;;;;7.41;54.41;93795.50;4954255;28;20223;-64
2022/04/03 02:40:08;;;;;;;2.27;1.30;;;;;;;7.33;54.21;93795.50;4951183;28;20238;-64
2022/04/03 02:42:33;;;;;;;4.43;1.47;;;;;;;7.36;54.28;93796.97;4956630;28;20219;-64
2022/04/03 02:44:59;;;;;;;2.97;1.63;;;;;;;7.36;53.77;93810.84;4963768;28;20244;-64
2022/04/03 02:47:25;;;;;;;4.57;1.47;;;;;;;7.28;53.89;93806.44;4959170;28;20548;-62
2022/04/03 02:49:51;;;;;;;2.63;1.40;;;;;;;7.25;54.56;93808.56;4965361;28;20200;-63
2022/04/03 02:52:20;;;;;;;1.70;1.40;;;;;;;7.36;54.25;93799.59;4956390;28;20251;-63
2022/04/03 02:54:46;;;;;;;1.60;1.20;;;;;;;7.36;54.58;93803.00;4953442;28;20344;-63
2022/04/03 02:57:16;;;;;;;4.10;1.60;;;;;;;7.23;55.43;93807.91;4963405;28;20287;-62
2022/04/03 02:59:42;;;;;;;3.50;1.20;;;;;;;7.16;55.54;93804.28;4960456;28;20224;-63
2022/04/03 03:02:08;;;;;;;2.43;1.53;;;;;;;7.12;55.59;93816.88;4957829;28;20283;-62
2022/04/03 03:04:37;;;;;;;3.73;1.57;;;;;;;7.12;54.74;93802.97;4991358;28;20532;-63
2022/04/03 03:07:06;;;;;;;3.67;1.67;;;;;;;7.08;55.91;93812.91;4957531;28;20224;-62
2022/04/03 03:09:33;;;;;;;4.90;1.83;;;;;;;7.11;55.62;93804.78;4955685;28;20331;-62
2022/04/03 03:11:59;;;;;;;2.37;1.40;;;;;;;7.05;55.79;93815.84;4954759;28;20264;-63
2022/04/03 03:14:27;;;;;;;3.03;1.50;;;;;;;7.09;56.09;93817.19;4964714;28;20228;-63
2022/04/03 03:16:52;;;;;;;2.13;1.20;;;;;;;7.01;55.36;93815.38;4957578;28;20217;-63
2022/04/03 03:19:18;;;;;;;3.10;1.23;;;;;;;6.98;56.27;93809.66;4957295;28;20223;-63
2022/04/03 03:21:43;;;;;;;3.60;1.73;;;;;;;7.00;56.28;93823.34;4958471;28;20291;-63
2022/04/03 03:24:09;;;;;;;2.70;1.67;;;;;;;7.02;56.02;93817.00;4952952;28;20275;-64
2022/04/03 03:26:36;;;;;;;1.93;1.30;;;;;;;6.99;55.46;93824.34;4957639;28;20220;-63
2022/04/03 03:29:02;;;;;;;2.57;1.40;;;;;;;7.03;55.58;93823.88;4960179;28;20251;-62
2022/04/03 03:31:28;;;;;;;2.00;1.33;;;;;;;6.98;56.15;93820.91;4955715;28;20239;-63
2022/04/03 03:33:54;;;;;;;2.70;1.67;;;;;;;6.90;55.74;93831.34;4963680;28;20224;-63
2022/04/03 03:36:19;;;;;;;4.53;1.80;;;;;;;6.99;56.27;93826.97;4961621;28;20251;-63
2022/04/03 03:38:45;;;;;;;3.20;1.60;;;;;;;7.00;55.62;93829.41;4957476;28;20228;-63
2022/04/03 03:41:11;;;;;;;2.20;1.57;;;;;;;7.01;55.85;93833.66;4962994;28;20240;-63
2022/04/03 03:43:37;;;;;;;2.67;1.67;;;;;;;6.93;56.21;93833.63;4961892;28;20200;-63
2022/04/03 03:46:03;;;;;;;2.27;1.50;;;;;;;6.87;56.71;93841.28;4967503;28;20231;-63
2022/04/03 03:48:28;;;;;;;3.43;1.20;;;;;;;6.96;56.16;93841.16;4960308;28;20260;-63
2022/04/03 03:50:55;;;;;;;2.93;1.70;;;;;;;6.98;57.14;93839.22;4960278;28;20244;-63
2022/04/03 03:53:20;;;;;;;2.27;1.50;;;;;;;6.89;57.55;93836.72;4957015;28;20218;-63
2022/04/03 03:55:46;;;;;;;3.63;1.40;;;;;;;6.93;57.03;93844.09;4967325;28;20213;-63
2022/04/03 03:58:12;;;;;;;4.30;1.60;;;;;;;6.87;57.01;93849.97;4969558;28;20235;-63
2022/04/03 04:00:37;;;;;;;2.90;1.77;;;;;;;6.90;57.81;93852.25;4969593;28;20224;-63
2022/04/03 04:03:04;;;;;;;3.87;2.03;;;;;;;7.12;57.08;93852.66;4968467;28;20236;-63
2022/04/03 04:05:29;;;;;;;5.07;2.00;;;;;;;7.04;57.02;93862.09;4962228;28;20235;-63
2022/04/03 04:07:55;;;;;;;4.30;1.67;;;;;;;6.92;57.85;93865.16;4959130;28;20318;-62
2022/04/03 04:10:20;;;;;;;4.07;1.80;;;;;;;6.88;57.75;93864.66;4967163;28;20225;-62
2022/04/03 04:12:47;;;;;;;4.97;1.80;;;;;;;6.92;57.86;93870.38;4967377;28;20219;-63
2022/04/03 04:15:14;;;;;;;4.57;1.70;;;;;;;6.99;57.98;93874.81;4958248;28;20237;-62
2022/04/03 04:17:41;;;;;;;3.10;1.67;;;;;;;7.04;58.34;93884.81;4945442;28;20247;-63
2022/04/03 04:20:11;;;;;;;3.67;1.90;;;;;;;6.91;57.97;93890.47;4964954;28;20208;-63
2022/04/03 04:22:37;;;;;;;3.37;1.77;;;;;;;6.93;57.86;93898.97;4962859;28;20215;-63
2022/04/03 04:25:03;;;;;;;3.27;1.80;;;;;;;6.95;57.08;93893.56;4957770;28;20239;-64
2022/04/03 04:27:29;;;;;;;3.27;2.00;;;;;;;7.13;57.10;93896.09;4966621;28;20376;-63
2022/04/03 04:29:54;;;;;;;2.27;1.70;;;;;;;7.07;57.15;93903.59;4964149;28;20374;-63
2022/04/03 04:32:21;;;;;;;4.17;1.93;;;;;;;7.07;56.88;93916.66;4960206;28;20216;-62
2022/04/03 04:34:50;;;;;;;3.30;1.90;;;;;;;7.17;56.24;93913.94;4960835;28;20212;-63
2022/04/03 04:37:17;;;;;;;5.93;1.97;;;;;;;7.21;55.36;93909.19;4967021;28;20231;-63
2022/04/03 04:39:43;;;;;;;3.67;2.10;;;;;;;7.24;55.67;93925.41;4955985;28;20235;-63
2022/04/03 04:42:09;;;;;;;2.53;2.10;;;;;;;7.21;55.85;93915.22;4947579;28;20222;-63
2022/04/03 04:44:35;;;;;;;4.23;2.17;;;;;;;7.18;56.55;93923.41;4956291;28;20254;-64
2022/04/03 04:47:01;;;;;;;7.60;2.33;;;;;;;7.27;55.81;93924.25;4966099;28;20244;-63
2022/04/03 04:49:27;;;;;;;6.10;2.87;;;;;;;7.35;56.39;93918.22;4961262;28;20291;-63
2022/04/03 04:51:52;;;;;;;4.47;2.60;;;;;;;7.36;56.59;93919.88;4968148;28;20229;-63
2022/04/03 04:54:18;;;;;;;3.50;2.63;;;;;;;7.41;56.77;93928.88;4966211;28;20228;-63
2022/04/03 04:56:43;;;;;;;5.33;2.67;;;;;;;7.42;57.20;93921.84;4953710;28;20235;-63
2022/04/03 04:59:09;;;;;;;5.40;2.33;;;;;;;7.34;56.55;93934.91;4971508;28;20228;-63
2022/04/03 05:01:34;;;;;;;3.77;2.30;;;;;;;7.19;57.21;93929.44;4966138;28;20260;-63
2022/04/03 05:04:00;;;;;;;3.33;2.30;;;;;;;7.21;56.57;93930.09;4956529;28;20228;-63
2022/04/03 05:06:27;;;;;;;3.90;2.07;;;;;;;7.19;56.91;93932.91;4962533;28;20225;-63
2022/04/03 05:08:56;;;;;;;6.83;3.10;;;;;;;7.32;56.12;93935.03;4965728;28;20296;-64
2022/04/03 05:11:22;;;;;;;4.93;2.90;;;;;;;7.31;56.12;93936.03;4966961;28;20224;-62
2022/04/03 05:13:48;;;;;;;4.83;2.53;;;;;;;7.30;56.46;93944.88;4962737;28;20216;-63
2022/04/03 05:16:13;;;;;;;1.27;1.00;;;;;;;7.54;48.32;93953.75;4960188;28;20580;-63
2022/04/03 05:18:39;;;;;;;0.67;0.67;;;;;;;7.53;48.03;93954.72;4955062;28;20224;-63
2022/04/03 05:21:05;;;;;;;0.80;0.80;;;;;;;7.61;46.95;93954.75;4965365;28;20235;-63
2022/04/03 05:23:31;;;;;;;0.90;0.80;;;;;;;7.57;46.56;93956.06;4959252;28;20233;-63
2022/04/03 05:25:57;;;;;;;0.90;0.70;;;;;;;7.53;46.28;93952.13;4970785;28;20235;-63
2022/04/03 05:28:23;;;;;;;1.93;0.90;;;;;;;7.64;46.30;93954.44;4962056;28;20216;-63
2022/04/03 05:30:48;;;;;;;0.80;0.60;;;;;;;7.57;46.10;93956.88;4961726;28;20227;-63
2022/04/03 05:33:15;;;;;;;2.07;0.50;;;;;;;7.80;44.65;93969.34;4966125;28;20227;-63
2022/04/03 05:35:41;;;;;;;0.57;0.50;;;;;;;7.65;44.67;93964.75;4951495;28;20232;-63
2022/04/03 05:38:06;;;;;;;1.73;0.60;;;;;;;7.60;45.03;93972.25;4946877;28;20216;-64
2022/04/03 05:40:32;;;;;;;0.60;0.50;;;;;;;7.65;45.03;93974.41;4942876;28;20209;-63
2022/04/03 05:42:57;;;;;;;3.07;0.90;;;;;;;7.69;44.92;93973.91;4955910;28;20227;-63
2022/04/03 05:45:24;;;;;;;2.00;0.73;;;;;;;7.82;44.76;93972.63;4959365;28;20240;-63
2022/04/03 05:47:50;;;;;;;1.40;1.30;;;;;;;8.02;43.91;93971.38;4990432;28;20299;-64
2022/04/03 05:50:15;;;;;;;1.00;0.70;;;;;;;8.13;44.11;93978.09;4958762;28;20216;-64
2022/04/03 05:52:47;;;;;;;0.80;0.60;;;;;;;8.29;42.51;93967.63;4966471;28;20278;-63
2022/04/03 05:55:15;;;;;;;0.70;0.67;;;;;;;8.32;42.95;93969.91;4952956;28;20234;-64
2022/04/03 05:57:41;;;;;;;1.60;0.70;;;;;;;8.44;42.54;93978.28;4938445;28;20300;-64
2022/04/03 06:00:12;;;;;;;1.20;1.03;;;;;;;8.35;41.74;93981.88;4943832;28;20392;-63
2022/04/03 06:02:56;;;;;;;1.10;0.67;;;;;;;8.32;41.06;93988.25;4951590;28;20242;-63
2022/04/03 06:05:24;;;;;;;0.97;0.50;;;;;;;8.30;40.84;93971.88;4959486;28;20239;-63
2022/04/03 06:07:50;;;;;;;1.57;0.70;;;;;;;8.35;40.13;93985.28;4956538;28;20209;-64
2022/04/03 06:10:16;;;;;;;2.50;0.90;;;;;;;8.37;41.54;93988.56;4966555;28;20288;-64
2022/04/03 06:13:01;;;;;;;1.70;0.80;;;;;;;8.50;41.76;93987.28;4956178;28;20225;-64
2022/04/03 06:15:33;;;;;;;1.70;0.87;;;;;;;8.65;41.77;93998.75;4964168;28;20391;-64
2022/04/03 06:17:59;;;;;;;1.37;0.90;;;;;;;8.55;41.76;94001.56;4968558;28;20228;-64
2022/04/03 06:20:25;;;;;;;1.70;0.53;;;;;;;8.52;41.47;93999.25;4961312;28;20224;-64
2022/04/03 06:22:51;;;;;;;1.47;0.70;;;;;;;8.54;41.00;94017.44;4958847;28;20235;-63
2022/04/03 06:25:17;;;;;;;1.73;0.70;;;;;;;8.50;40.82;94016.09;4966662;28;20239;-63
2022/04/03 06:27:42;;;;;;;1.03;0.70;;;;;;;8.48;40.87;94011.03;4965921;28;20243;-64
2022/04/03 06:30:09;;;;;;;1.20;0.67;;;;;;;8.49;41.10;94014.47;4962446;28;20271;-63
2022/04/03 06:32:34;;;;;;;2.07;0.80;;;;;;;8.38;41.45;94010.34;4987167;28;20225;-63
2022/04/03 06:35:00;;;;;;;1.47;0.63;;;;;;;8.54;41.19;94036.56;4969132;28;20209;-63
2022/04/03 06:37:26;;;;;;;0.67;0.60;;;;;;;8.58;41.72;94021.34;4969036;28;20266;-63
2022/04/03 06:39:52;;;;;;;2.27;0.80;;;;;;;8.57;41.66;94025.75;4957652;28;20228;-63
2022/04/03 06:42:18;;;;;;;0.70;0.70;;;;;;;8.45;41.80;94029.72;4963574;28;20229;-63
2022/04/03 06:44:43;;;;;;;0.90;0.70;;;;;;;8.52;42.04;94024.63;4955817;28;20262;-63
2022/04/03 06:47:09;;;;;;;1.43;0.50;;;;;;;8.49;41.75;94040.69;4954079;28;20209;-63
2022/04/03 06:49:35;;;;;;;0.50;0.50;;;;;;;8.54;42.21;94043.63;4960260;28;20205;-64
2022/04/03 06:52:01;;;;;;;1.27;0.80;;;;;;;8.68;42.12;94042.97;4958510;28;20224;-64
2022/04/03 06:54:26;;;;;;;1.77;0.77;;;;;;;8.69;42.45;94049.88;4964921;28;20239;-64
2022/04/03 06:56:55;;;;;;;2.43;0.57;;;;;;;8.64;42.36;94043.47;4961543;28;20252;-64
2022/04/03 06:59:20;;;;;;;0.60;0.60;;;;;;;8.37;42.75;94051.44;4960619;28;20216;-64
2022/04/03 07:01:46;;;;;;;1.63;0.60;;;;;;;8.48;43.35;94060.00;4953607;28;20220;-64
2022/04/03 07:04:12;;;;;;;1.33;0.80;;;;;;;8.52;43.23;94061.31;4963699;28;20293;-64
2022/04/03 07:06:37;;;;;;;2.73;0.50;;;;;;;8.77;42.62;94068.22;4964369;28;20239;-64
2022/04/03 07:09:03;;;;;;;2.97;0.80;;;;;;;8.86;42.47;94069.03;4967637;28;20224;-64
2022/04/03 07:11:28;;;;;;;2.27;0.60;;;;;;;8.94;41.52;94082.13;4968152;28;20220;-64
2022/04/03 07:13:53;;;;;;;1.10;0.50;;;;;;;8.70;42.65;94090.81;4959612;28;20207;-64
2022/04/03 07:16:19;;;;;;;2.43;0.80;;;;;;;8.63;42.67;94084.56;4961092;28;20239;-64
2022/04/03 07:18:44;;;;;;;0.87;0.60;;;;;;;8.31;44.24;94083.53;4962490;28;20274;-64
2022/04/03 07:21:10;;;;;;;1.37;1.27;;;;;;;8.17;43.98;94105.09;4966958;28;20224;-64
2022/04/03 07:23:36;;;;;;;1.00;0.67;;;;;;;8.32;44.43;94098.25;4966771;28;20240;-64
2022/04/03 07:26:01;;;;;;;0.60;0.60;;;;;;;8.49;44.50;94087.84;4965093;28;20205;-64
2022/04/03 07:28:27;;;;;;;1.07;0.70;;;;;;;8.68;44.38;94103.25;4968873;28;20212;-64
2022/04/03 07:30:52;;;;;;;1.97;0.97;;;;;;;8.60;44.01;94100.63;4963505;28;20291;-64
2022/04/03 07:33:21;;;;;;;1.20;0.80;;;;;;;8.49;44.20;94112.22;4976069;28;20232;-64
2022/04/03 07:35:47;;;;;;;2.47;1.17;;;;;;;8.37;44.44;94105.63;4959474;28;20231;-64
2022/04/03 07:38:14;;;;;;;1.10;0.90;;;;;;;8.53;44.06;94105.69;4959948;28;20267;-64
2022/04/03 07:40:39;;;;;;;0.63;0.63;;;;;;;8.81;43.14;94111.44;4964686;28;20260;-64
2022/04/03 07:43:06;;;;;;;0.80;0.60;;;;;;;8.91;42.75;94102.63;4959013;28;20228;-63
2022/04/03 07:45:32;;;;;;;2.13;0.90;;;;;;;9.11;42.47;94121.44;4963969;28;20216;-63
2022/04/03 07:47:58;;;;;;;0.70;0.60;;;;;;;9.14;42.34;94114.09;4957040;28;20235;-63
2022/04/03 07:50:25;;;;;;;0.60;0.60;;;;;;;9.22;41.62;94106.22;4966435;28;20280;-63
2022/04/03 07:52:51;;;;;;;1.80;0.70;;;;;;;9.50;42.02;94137.31;4960835;28;20211;-63
2022/04/03 07:55:17;;;;;;;0.97;0.80;;;;;;;9.43;41.67;94118.78;4960222;28;20220;-64
2022/04/03 07:57:43;;;;;;;0.70;0.70;;;;;;;9.24;40.93;94130.44;4964916;28;20344;-63
2022/04/03 08:00:11;;;;;;;2.67;0.80;;;;;;;8.77;42.18;94128.50;4961442;28;20216;-63
2022/04/03 08:02:38;;;;;;;1.50;0.90;;;;;;;8.70;42.60;94117.00;4964066;28;20227;-63
2022/04/03 08:05:04;;;;;;;0.73;0.70;;;;;;;8.66;42.80;94126.19;4970066;28;20208;-63
2022/04/03 08:07:39;;;;;;;0.47;0.43;;;;;;;8.93;43.48;94139.97;4964287;28;20204;-64
2022/04/03 08:10:08;;;;;;;0.70;0.60;;;;;;;8.85;42.60;94127.69;4958746;28;20229;-62
2022/04/03 08:12:36;;;;;;;1.23;0.70;;;;;;;8.92;42.11;94119.97;4948294;28;20323;-64
2022/04/03 08:15:04;;;;;;;3.23;0.70;;;;;;;8.86;42.53;94134.56;4990918;28;20244;-63
2022/04/03 08:17:30;;;;;;;1.73;0.70;;;;;;;8.91;41.78;94129.66;4966475;28;20245;-64
2022/04/03 08:19:55;;;;;;;0.80;0.50;;;;;;;9.07;41.15;94131.44;4963168;28;20239;-66
2022/04/03 08:22:21;;;;;;;2.57;0.73;;;;;;;9.23;40.25;94141.94;4964198;28;20231;-67
2022/04/03 08:24:48;;;;;;;2.33;0.63;;;;;;;9.28;40.35;94137.00;4961267;28;20256;-66
2022/04/03 08:27:14;;;;;;;1.40;0.60;;;;;;;9.33;40.33;94126.03;4962598;28;20291;-64
2022/04/03 08:29:40;;;;;;;1.07;0.70;;;;;;;9.19;41.12;94113.56;4960427;28;20224;-64
2022/04/03 08:32:06;;;;;;;1.07;0.60;;;;;;;9.31;41.06;94119.31;4957024;28;20205;-65
2022/04/03 08:34:31;;;;;;;0.70;0.60;;;;;;;9.39;40.76;94117.50;4960368;28;20196;-61
2022/04/03 08:36:57;;;;;;;1.00;0.60;;;;;;;9.60;40.40;94145.84;4967389;28;20221;-62
2022/04/03 08:39:23;;;;;;;0.50;0.50;;;;;;;9.64;39.75;94120.06;4968654;28;20275;-62
2022/04/03 08:41:49;;;;;;;0.67;0.60;;;;;;;9.78;39.42;94142.16;4939965;28;20232;-66
2022/04/03 08:44:15;;;;;;;1.10;0.60;;;;;;;9.86;39.31;94144.78;4969360;28;20211;-66
2022/04/03 08:46:46;;;;;;;1.53;0.60;;;;;;;9.84;39.03;94142.34;4967953;28;20219;-68
2022/04/03 08:49:13;;;;;;;2.47;0.60;;;;;;;9.91;39.17;94147.72;4966749;28;20243;-69
2022/04/03 08:51:40;;;;;;;0.70;0.40;;;;;;;9.90;38.83;94161.84;4967691;28;20224;-62
2022/04/03 08:54:06;;;;;;;0.57;0.57;;;;;;;9.52;40.37;94148.47;4977796;28;20228;-65
2022/04/03 08:56:31;;;;;;;0.50;0.50;;;;;;;9.33;39.71;94151.41;4971967;28;20275;-64
2022/04/03 08:58:57;;;;;;;1.30;0.87;;;;;;;9.49;39.72;94152.25;4963766;28;20212;-63
2022/04/03 09:01:24;;;;;;;0.60;0.60;;;;;;;9.87;39.51;94139.38;4964599;28;20216;-65
2022/04/03 09:03:50;;;;;;;1.37;0.50;;;;;;;10.42;37.89;94150.81;4957968;28;20237;-64
2022/04/03 09:06:18;;;;;;;0.50;0.30;;;;;;;10.20;38.39;94177.84;4957309;28;20256;-64
2022/04/03 09:08:45;;;;;;;1.80;0.70;;;;;;;10.06;38.62;94150.47;4961358;28;20228;-64
2022/04/03 09:11:11;;;;;;;1.40;0.80;;;;;;;10.05;38.38;94149.66;4947341;28;20263;-64
2022/04/03 09:13:38;;;;;;;1.33;0.80;;;;;;;10.07;37.59;94149.47;4968720;28;20211;-64
2022/04/03 09:16:05;;;;;;;0.70;0.50;;;;;;;10.18;38.06;94159.59;4959678;28;20567;-64
2022/04/03 09:18:51;;;;;;;0.73;0.60;;;;;;;9.93;37.79;94151.81;4957838;28;20232;-65
2022/04/03 09:21:24;;;;;;;2.43;0.60;;;;;;;10.14;36.72;94158.31;4954685;28;20226;-64
2022/04/03 09:24:07;;;;;;;1.77;0.80;;;;;;;10.49;36.66;94164.91;4946265;28;20245;-65
2022/04/03 09:26:34;;;;;;;0.83;0.67;;;;;;;10.75;35.85;94150.66;4949274;28;20240;-65
2022/04/03 09:29:06;;;;;;;1.63;0.70;;;;;;;11.02;35.38;94151.97;4991232;28;20204;-67
2022/04/03 09:31:31;;;;;;;0.90;0.60;;;;;;;11.07;33.62;94169.84;4961372;28;20244;-66
2022/04/03 09:34:01;;;;;;;1.50;0.87;;;;;;;11.01;34.89;94168.72;4956823;28;20228;-67
2022/04/03 09:36:31;;;;;;;0.50;0.40;;;;;;;11.13;34.13;94174.41;4962483;28;20245;-66
2022/04/03 09:39:16;;;;;;;0.70;0.50;;;;;;;11.29;35.08;94174.28;4963218;28;20224;-68
2022/04/03 09:42:09;;;;;;;1.97;1.17;;;;;;;11.35;37.61;94178.00;4957260;28;20235;-66
2022/04/03 09:44:37;;;;;;;1.40;1.30;;;;;;;10.99;41.05;94189.94;4953194;28;20237;-67
2022/04/03 09:47:26;;;;;;;2.30;1.30;;;;;;;10.85;42.59;94187.22;4943485;28;20205;-66
2022/04/03 09:50:00;;;;;;;1.33;1.10;;;;;;;10.80;43.80;94196.47;4962469;28;20237;-67
2022/04/03 09:52:44;;;;;;;1.17;1.07;;;;;;;10.91;41.99;94187.38;4957730;28;20226;-66
2022/04/03 09:55:16;;;;;;;1.60;1.10;;;;;;;11.13;41.04;94190.19;4972901;28;20224;-67
2022/04/03 09:57:43;;;;;;;1.30;1.20;;;;;;;11.32;41.01;94189.72;4957896;28;20239;-67
2022/04/03 10:00:09;;;;;;;1.87;1.20;;;;;;;11.41;40.61;94193.09;4988726;28;20233;-64
2022/04/03 10:02:34;;;;;;;1.70;1.30;;;;;;;11.58;39.86;94194.59;4962506;28;20279;-64
2022/04/03 10:05:01;;;;;;;2.07;1.43;;;;;;;11.74;37.82;94190.19;4967269;28;20216;-64
2022/04/03 10:07:28;;;;;;;1.50;1.13;;;;;;;11.86;35.75;94186.13;4958037;28;20229;-64
2022/04/03 10:09:54;;;;;;;0.70;0.60;;;;;;;11.60;33.77;94191.78;4963005;28;20235;-64
2022/04/03 10:12:22;;;;;;;2.97;0.80;;;;;;;11.51;33.54;94185.78;4965215;28;20228;-63
2022/04/03 10:14:50;;;;;;;0.73;0.50;;;;;;;11.61;34.18;94194.25;4964604;28;20224;-63
2022/04/03 10:17:18;;;;;;;1.10;0.63;;;;;;;11.66;35.23;94184.00;4969659;28;20216;-63
2022/04/03 10:19:43;;;;;;;0.73;0.70;;;;;;;11.68;34.51;94197.81;4966975;28;20308;-65
2022/04/03 10:22:15;;;;;;;1.13;0.60;;;;;;;11.66;35.14;94193.72;4962513;28;20314;-65
2022/04/03 10:24:44;;;;;;;1.20;0.90;;;;;;;11.79;38.42;94193.94;4961646;28;20275;-67
2022/04/03 10:27:18;;;;;;;2.87;1.50;;;;;;;12.06;37.78;94194.34;4960643;28;20251;-66
2022/04/03 10:29:44;;;;;;;1.40;1.30;;;;;;;12.00;37.86;94202.97;4969197;28;20277;-66
2022/04/03 10:32:25;;;;;;;1.73;1.27;;;;;;;11.87;39.12;94217.59;4960901;28;20214;-67
2022/04/03 10:34:54;;;;;;;3.77;1.70;;;;;;;11.69;38.35;94214.44;4960655;28;20232;-62
2022/04/03 10:37:31;;;;;;;3.17;1.63;;;;;;;11.58;38.16;94214.84;4957670;28;20225;-67
2022/04/03 10:40:15;;;;;;;2.57;1.43;;;;;;;11.75;37.50;94207.63;4962417;28;20231;-66
2022/04/03 10:42:55;;;;;;;1.43;1.30;;;;;;;12.23;36.99;94201.06;4956963;28;20224;-64
2022/04/03 10:45:56;;;;;;;1.53;1.37;;;;;;;12.58;36.40;94196.84;4955819;28;20258;-65
2022/04/03 10:48:22;;;;;;;2.83;1.30;;;;;;;12.86;35.60;94198.03;4958296;28;20289;-63
2022/04/03 10:51:04;;;;;;;1.70;1.40;;;;;;;13.00;35.26;94195.31;4981318;28;20247;-65
2022/04/03 10:53:41;;;;;;;1.60;1.30;;;;;;;12.47;34.44;94191.25;4980534;28;20291;-64
2022/04/03 10:56:26;;;;;;;1.57;1.40;;;;;;;12.08;35.79;94201.09;4982710;28;20210;-64
2022/04/03 10:58:54;;;;;;;3.07;1.80;;;;;;;11.78;36.90;94209.91;4987842;28;20215;-64
2022/04/03 11:01:27;;;;;;;3.10;1.70;;;;;;;11.53;37.23;94238.25;4970607;28;20227;-62
2022/04/03 11:04:12;;;;;;;2.80;1.90;;;;;;;11.38;38.42;94231.09;4960759;28;20232;-63
2022/04/03 11:06:39;;;;;;;5.73;2.10;;;;;;;11.39;43.30;94226.69;4962157;28;20314;-63
2022/04/03 11:09:25;;;;;;;4.22;2.40;;;;;;;11.18;46.65;94229.97;4978965;28;20370;-65
2022/04/03 11:11:56;;;;;;;4.13;2.80;;;;;;;11.00;45.56;94233.66;4968661;28;20227;-66
2022/04/03 11:14:51;;;;;;;2.23;1.90;;;;;;;10.81;46.32;94236.75;4986303;28;20230;-63
2022/04/03 11:17:18;;;;;;;2.60;1.73;;;;;;;10.67;50.28;94235.66;4965431;28;20211;-68
2022/04/03 11:19:45;;;;;;;3.40;1.90;;;;;;;10.71;47.80;94236.94;4962454;28;20243;-63
2022/04/03 11:22:19;;;;;;;1.77;1.67;;;;;;;10.77;46.60;94223.13;4961667;28;20251;-66
2022/04/03 11:24:45;;;;;;;2.70;1.97;;;;;;;10.86;47.58;94213.38;4965469;28;20247;-66
2022/04/03 11:27:12;;;;;;;5.53;2.10;;;;;;;10.78;48.54;94222.13;4970515;28;20280;-67
2022/04/03 11:29:38;;;;;;;2.57;2.10;;;;;;;10.90;47.92;94222.53;4959106;28;20251;-66
2022/04/03 11:32:06;;;;;;;1.90;1.80;;;;;;;10.80;47.22;94224.59;4964559;28;20294;-65
2022/04/03 11:34:33;;;;;;;2.00;1.60;;;;;;;10.75;46.55;94226.91;4962552;28;20309;-67
2022/04/03 11:37:01;;;;;;;2.03;1.83;;;;;;;10.63;43.41;94236.16;4945222;28;20220;-66
2022/04/03 11:39:31;;;;;;;2.33;1.90;;;;;;;10.60;43.79;94230.25;4954012;28;20264;-67
2022/04/03 11:41:58;;;;;;;2.50;1.90;;;;;;;10.58;44.80;94240.13;4964308;28;20232;-66